Time;durP1;ratioP1;P1;durP2;ratioP2;P2;SDS_P1;SDS_P2;PMS_P1;PMS_P2;Temp;Humidity;BMP_temperature;BMP_pressure;BME280_temperature;BME280_humidity;BME280_pressure;Samples;Min_cycle;Max_cycle;Signal;HPM_P1;HPM_P2
2020/12/18 00:00:36;;;;;;;1.70;1.30;;;10.60;99.90;;;;;;4989407;28;20229;-27
2020/12/18 00:03:07;;;;;;;1.63;1.20;;;10.50;99.90;;;;;;5008006;28;20228;-27
2020/12/18 00:05:42;;;;;;;1.90;1.80;;;10.50;99.90;;;;;;5009527;28;20196;-27
2020/12/18 00:08:12;;;;;;;1.90;1.50;;;10.50;99.90;;;;;;5009442;28;20218;-27
2020/12/18 00:10:43;;;;;;;1.55;1.45;;;10.30;99.90;;;;;;5008995;28;20637;-26
2020/12/18 00:13:13;;;;;;;5.85;1.70;;;10.20;99.90;;;;;;5009559;28;20727;-27
2020/12/18 00:15:44;;;;;;;1.58;1.23;;;10.10;99.90;;;;;;5009856;28;20210;-27
2020/12/18 00:18:14;;;;;;;3.25;1.33;;;10.00;99.90;;;;;;5010082;28;20199;-27
2020/12/18 00:20:56;;;;;;;4.32;2.78;;;10.00;99.90;;;;;;5009957;28;20618;-27
2020/12/18 00:23:26;;;;;;;3.20;2.90;;;9.90;99.90;;;;;;5009756;28;20592;-27
2020/12/18 00:25:56;;;;;;;3.40;2.70;;;9.80;99.90;;;;;;5009255;28;20226;-27
2020/12/18 00:28:26;;;;;;;4.45;3.85;;;9.70;99.90;;;;;;5009534;28;20704;-27
2020/12/18 00:30:57;;;;;;;2.45;2.25;;;9.70;99.90;;;;;;4997729;28;20301;-27
2020/12/18 00:33:27;;;;;;;2.95;2.22;;;9.60;99.90;;;;;;4989891;28;20203;-27
2020/12/18 00:35:57;;;;;;;2.35;2.15;;;9.60;99.90;;;;;;4989957;28;20212;-27
2020/12/18 00:38:28;;;;;;;2.88;2.40;;;9.50;99.90;;;;;;4989881;28;20635;-27
2020/12/18 00:40:58;;;;;;;4.90;3.35;;;9.50;99.90;;;;;;5008047;28;20203;-27
2020/12/18 00:43:28;;;;;;;3.42;3.10;;;9.40;99.90;;;;;;5009376;28;20413;-27
2020/12/18 00:45:59;;;;;;;4.07;3.63;;;9.40;99.90;;;;;;5009610;28;20346;-27
2020/12/18 00:48:29;;;;;;;4.40;3.78;;;9.30;99.90;;;;;;5008777;28;20550;-27
2020/12/18 00:51:10;;;;;;;5.68;3.65;;;9.30;99.90;;;;;;5009080;28;20197;-26
2020/12/18 00:53:40;;;;;;;3.40;3.10;;;9.30;99.90;;;;;;5009159;28;20261;-27
2020/12/18 00:56:11;;;;;;;3.92;3.53;;;9.20;99.90;;;;;;5004876;28;20242;-27
2020/12/18 00:58:44;;;;;;;12.32;3.60;;;9.10;99.90;;;;;;5009327;28;20258;-27
2020/12/18 01:01:16;;;;;;;4.18;3.42;;;9.00;99.90;;;;;;5009252;28;20731;-27
2020/12/18 01:03:46;;;;;;;3.67;3.05;;;9.00;99.90;;;;;;5009413;28;20683;-26
2020/12/18 01:06:17;;;;;;;3.28;2.97;;;8.90;99.90;;;;;;5008629;28;20210;-26
2020/12/18 01:08:47;;;;;;;2.97;2.67;;;8.90;99.90;;;;;;4998063;28;20227;-27
2020/12/18 01:11:18;;;;;;;3.00;2.70;;;8.80;99.90;;;;;;5008596;28;20253;-26
2020/12/18 01:13:48;;;;;;;3.67;2.83;;;8.80;99.90;;;;;;5011039;28;20595;-27
2020/12/18 01:16:19;;;;;;;5.68;3.05;;;8.80;99.90;;;;;;5008630;28;20619;-27
2020/12/18 01:18:49;;;;;;;4.15;3.33;;;8.70;99.90;;;;;;5011816;28;20242;-27
2020/12/18 01:21:28;;;;;;;4.22;3.15;;;8.80;99.90;;;;;;5005415;28;20226;-27
2020/12/18 01:23:58;;;;;;;4.85;3.80;;;8.80;99.90;;;;;;5012412;28;20725;-27
2020/12/18 01:26:28;;;;;;;4.28;3.75;;;8.80;99.90;;;;;;5010786;28;20199;-27
2020/12/18 01:28:58;;;;;;;6.22;3.83;;;8.90;99.90;;;;;;5012005;28;20753;-27
2020/12/18 01:31:29;;;;;;;5.03;3.60;;;8.90;99.90;;;;;;5011663;28;20207;-27
2020/12/18 01:33:59;;;;;;;8.55;3.72;;;8.90;99.90;;;;;;5012007;28;20565;-27
2020/12/18 01:36:29;;;;;;;3.00;2.80;;;9.00;99.90;;;;;;5010332;28;20275;-27
2020/12/18 01:39:00;;;;;;;5.15;2.80;;;9.00;99.90;;;;;;5011818;28;20199;-27
2020/12/18 01:41:30;;;;;;;4.97;3.25;;;9.10;99.90;;;;;;5003107;28;20274;-27
2020/12/18 01:44:01;;;;;;;5.43;3.40;;;9.10;99.90;;;;;;5011457;28;20191;-27
2020/12/18 01:46:33;;;;;;;4.72;3.55;;;9.20;99.90;;;;;;5015903;28;20214;-27
2020/12/18 01:49:03;;;;;;;3.35;3.05;;;9.10;99.90;;;;;;5021758;28;20211;-27
2020/12/18 01:51:48;;;;;;;6.47;3.33;;;8.90;99.90;;;;;;5011475;28;20710;-27
2020/12/18 01:54:20;;;;;;;4.80;3.40;;;8.90;99.90;;;;;;4994874;28;20736;-27
2020/12/18 01:56:52;;;;;;;3.40;3.10;;;8.90;99.90;;;;;;5011383;28;20242;-27
2020/12/18 01:59:22;;;;;;;4.95;3.13;;;8.90;99.90;;;;;;5012343;28;20267;-27
2020/12/18 02:01:55;;;;;;;4.55;3.50;;;8.90;99.90;;;;;;5010331;28;20187;-27
2020/12/18 02:04:25;;;;;;;7.13;3.10;;;9.00;99.90;;;;;;5007762;28;20216;-26
2020/12/18 02:06:58;;;;;;;7.88;4.35;;;9.10;99.90;;;;;;5001449;28;20630;-27
2020/12/18 02:09:28;;;;;;;3.67;2.70;;;9.10;99.90;;;;;;5010599;28;20231;-26
2020/12/18 02:11:59;;;;;;;5.75;2.60;;;9.00;99.90;;;;;;5009159;28;20278;-27
2020/12/18 02:14:29;;;;;;;6.90;3.50;;;9.00;99.90;;;;;;5011616;28;20204;-27
2020/12/18 02:17:01;;;;;;;3.67;3.28;;;9.00;99.90;;;;;;5011584;28;20191;-27
2020/12/18 02:19:35;;;;;;;3.50;2.95;;;9.00;99.90;;;;;;5011076;28;20210;-26
2020/12/18 02:22:15;;;;;;;3.28;2.90;;;9.00;99.90;;;;;;5011148;28;20202;-27
2020/12/18 02:24:52;;;;;;;3.72;2.45;;;9.00;99.90;;;;;;5011252;28;20218;-27
2020/12/18 02:27:23;;;;;;;4.78;2.45;;;9.20;99.90;;;;;;5010553;28;20600;-27
2020/12/18 02:29:53;;;;;;;5.53;2.70;;;9.30;99.90;;;;;;5001127;28;20219;-27
2020/12/18 02:32:24;;;;;;;6.45;3.92;;;9.30;99.90;;;;;;5011202;28;20230;-26
2020/12/18 02:34:54;;;;;;;5.85;5.22;;;9.20;99.90;;;;;;5003098;28;20252;-27
2020/12/18 02:37:24;;;;;;;5.53;4.82;;;9.30;99.90;;;;;;5010455;28;20195;-26
2020/12/18 02:39:58;;;;;;;4.60;4.20;;;9.20;99.90;;;;;;5009705;28;20685;-27
2020/12/18 02:42:29;;;;;;;5.47;4.53;;;9.20;99.90;;;;;;5009016;28;20208;-27
2020/12/18 02:44:59;;;;;;;6.20;4.35;;;9.10;99.90;;;;;;5011102;28;20196;-27
2020/12/18 02:47:30;;;;;;;5.63;4.03;;;9.00;99.90;;;;;;5011332;28;20219;-27
2020/12/18 02:50:00;;;;;;;5.00;3.97;;;8.90;99.90;;;;;;5010552;28;20782;-27
2020/12/18 02:52:30;;;;;;;4.93;3.90;;;8.80;99.90;;;;;;5010003;28;20575;-28
2020/12/18 02:55:00;;;;;;;4.88;3.72;;;8.60;99.90;;;;;;5010597;28;20230;-28
2020/12/18 02:57:31;;;;;;;5.95;5.35;;;8.50;99.90;;;;;;5009843;28;20210;-28
2020/12/18 03:00:01;;;;;;;11.82;7.43;;;8.40;99.90;;;;;;5011303;28;20587;-28
2020/12/18 03:02:32;;;;;;;14.52;13.13;;;8.30;99.90;;;;;;5010442;28;20278;-28
2020/12/18 03:05:02;;;;;;;11.13;10.13;;;8.50;99.90;;;;;;5010089;28;20614;-28
2020/12/18 03:07:32;;;;;;;15.88;14.32;;;8.40;99.90;;;;;;5011200;28;20296;-28
2020/12/18 03:10:02;;;;;;;19.70;17.70;;;8.20;99.90;;;;;;5009980;28;20255;-28
2020/12/18 03:12:33;;;;;;;19.30;17.40;;;8.20;99.90;;;;;;5010359;28;20196;-28
2020/12/18 03:15:03;;;;;;;17.05;15.45;;;8.20;99.90;;;;;;5010487;28;20192;-27
2020/12/18 03:17:33;;;;;;;14.38;12.98;;;8.20;99.90;;;;;;5010908;28;20621;-28
2020/12/18 03:20:04;;;;;;;15.73;13.63;;;8.20;99.90;;;;;;5010041;28;20418;-28
2020/12/18 03:22:45;;;;;;;15.25;13.82;;;8.30;99.90;;;;;;5010489;28;20195;-27
2020/12/18 03:25:15;;;;;;;17.00;15.05;;;8.40;99.90;;;;;;5009513;28;20199;-27
2020/12/18 03:27:47;;;;;;;15.93;13.75;;;8.40;99.90;;;;;;5009962;28;20562;-27
2020/12/18 03:30:17;;;;;;;14.82;13.40;;;8.40;99.90;;;;;;4993583;28;20203;-27
2020/12/18 03:32:47;;;;;;;15.45;12.93;;;8.30;99.90;;;;;;5001050;28;20352;-26
2020/12/18 03:35:17;;;;;;;11.50;9.80;;;8.30;99.90;;;;;;5009134;28;20556;-26
2020/12/18 03:37:48;;;;;;;15.55;9.95;;;8.30;99.90;;;;;;5008146;28;20195;-26
2020/12/18 03:40:18;;;;;;;11.18;10.00;;;8.40;99.90;;;;;;4995341;28;20208;-26
2020/12/18 03:42:49;;;;;;;12.18;8.93;;;8.40;99.90;;;;;;5004694;28;20249;-27
2020/12/18 03:45:19;;;;;;;11.07;9.35;;;8.50;99.90;;;;;;5009646;28;20191;-25
2020/12/18 03:47:49;;;;;;;14.38;9.55;;;8.30;99.90;;;;;;5009682;28;20606;-25
2020/12/18 03:50:19;;;;;;;10.13;9.15;;;8.20;99.90;;;;;;5009213;28;20634;-27
2020/12/18 03:53:05;;;;;;;10.20;8.75;;;8.20;99.90;;;;;;5009505;28;20199;-26
2020/12/18 03:55:35;;;;;;;11.77;9.80;;;8.20;99.90;;;;;;5009075;28;20254;-26
2020/12/18 03:58:06;;;;;;;11.20;8.68;;;8.20;99.90;;;;;;5009580;28;20267;-26
2020/12/18 04:00:36;;;;;;;8.85;8.05;;;8.10;99.90;;;;;;5009351;28;20595;-25
2020/12/18 04:03:06;;;;;;;8.98;8.07;;;8.10;99.90;;;;;;5006810;28;20698;-26
2020/12/18 04:05:36;;;;;;;9.50;8.15;;;8.00;99.90;;;;;;5009923;28;20276;-25
2020/12/18 04:08:07;;;;;;;7.90;7.20;;;8.00;99.90;;;;;;5010638;28;20199;-26
2020/12/18 04:10:37;;;;;;;8.70;7.90;;;8.00;99.90;;;;;;5008789;28;20230;-26
2020/12/18 04:13:08;;;;;;;9.75;7.15;;;8.00;99.90;;;;;;5009071;28;20643;-26
2020/12/18 04:15:42;;;;;;;9.55;8.18;;;8.10;99.90;;;;;;5005675;28;20199;-26
2020/12/18 04:18:12;;;;;;;10.32;8.25;;;8.20;99.90;;;;;;5008983;28;20195;-26
2020/12/18 04:20:43;;;;;;;10.90;8.30;;;8.30;99.90;;;;;;5008854;28;20183;-27
2020/12/18 04:23:20;;;;;;;8.00;7.30;;;8.40;99.90;;;;;;5008768;28;20195;-27
2020/12/18 04:25:50;;;;;;;8.27;7.47;;;8.40;99.90;;;;;;5005001;28;20222;-27
2020/12/18 04:28:22;;;;;;;8.55;7.70;;;8.50;99.90;;;;;;4994242;28;20216;-26
2020/12/18 04:30:52;;;;;;;10.10;8.68;;;8.40;99.90;;;;;;5007873;28;20195;-27
2020/12/18 04:33:22;;;;;;;9.10;8.10;;;8.40;99.90;;;;;;5008782;28;20195;-27
2020/12/18 04:35:52;;;;;;;12.93;9.23;;;8.20;99.90;;;;;;5008783;28;20655;-27
2020/12/18 04:38:22;;;;;;;14.68;9.30;;;8.10;99.90;;;;;;5008807;28;20621;-27
2020/12/18 04:40:53;;;;;;;9.90;8.90;;;8.20;99.90;;;;;;4999581;28;20305;-27
2020/12/18 04:43:25;;;;;;;11.20;10.10;;;8.30;99.90;;;;;;5007912;28;20192;-26
2020/12/18 04:45:59;;;;;;;10.13;9.13;;;8.30;99.90;;;;;;5008113;28;20699;-26
2020/12/18 04:48:30;;;;;;;10.10;8.68;;;8.20;99.90;;;;;;5010160;28;20754;-26
2020/12/18 04:51:01;;;;;;;8.93;8.02;;;8.30;99.90;;;;;;5020349;28;20195;-26
2020/12/18 04:53:43;;;;;;;8.90;7.45;;;8.20;99.90;;;;;;5011979;28;20711;-27
2020/12/18 04:56:13;;;;;;;9.02;6.50;;;8.30;99.90;;;;;;5012402;28;20263;-27
2020/12/18 04:58:46;;;;;;;6.75;6.10;;;8.30;99.90;;;;;;5013490;28;20722;-26
2020/12/18 05:01:20;;;;;;;6.95;6.25;;;8.30;99.90;;;;;;5012680;28;20211;-26
2020/12/18 05:03:51;;;;;;;9.60;6.65;;;8.30;99.90;;;;;;5012333;28;20222;-26
2020/12/18 05:06:21;;;;;;;7.20;6.55;;;8.30;99.90;;;;;;5010728;28;20287;-26
2020/12/18 05:08:51;;;;;;;7.93;7.13;;;8.30;99.90;;;;;;5012889;28;20237;-26
2020/12/18 05:11:23;;;;;;;10.60;7.60;;;8.30;99.90;;;;;;5010794;28;20277;-26
2020/12/18 05:13:55;;;;;;;8.35;7.55;;;8.30;99.90;;;;;;5011721;28;20610;-26
2020/12/18 05:16:26;;;;;;;10.82;9.05;;;8.30;99.90;;;;;;5010900;28;20199;-27
2020/12/18 05:19:03;;;;;;;10.55;9.30;;;8.20;99.90;;;;;;5011513;28;20202;-27
2020/12/18 05:21:35;;;;;;;13.07;9.77;;;8.30;99.90;;;;;;5011241;28;20639;-26
2020/12/18 05:24:05;;;;;;;11.43;9.85;;;8.30;99.90;;;;;;5002986;28;20245;-26
2020/12/18 05:26:35;;;;;;;9.98;8.90;;;8.30;99.90;;;;;;5005724;28;20203;-26
2020/12/18 05:29:09;;;;;;;10.77;8.48;;;8.30;99.90;;;;;;5006887;28;20223;-26
2020/12/18 05:31:39;;;;;;;12.27;9.32;;;8.30;99.90;;;;;;5011375;28;20187;-27
2020/12/18 05:34:09;;;;;;;10.65;9.23;;;8.30;99.90;;;;;;5000780;28;20726;-27
2020/12/18 05:36:43;;;;;;;9.98;8.10;;;8.30;99.90;;;;;;5007868;28;20242;-27
2020/12/18 05:39:14;;;;;;;8.18;7.22;;;8.30;99.90;;;;;;5010283;28;20553;-27
2020/12/18 05:41:46;;;;;;;10.90;7.93;;;8.40;99.90;;;;;;5013426;28;20646;-27
2020/12/18 05:44:17;;;;;;;7.85;7.13;;;8.40;99.90;;;;;;5004564;28;20191;-27
2020/12/18 05:46:47;;;;;;;9.30;7.72;;;8.50;99.90;;;;;;5011162;28;20638;-27
2020/12/18 05:49:27;;;;;;;10.60;7.38;;;8.50;99.90;;;;;;5008023;28;20235;-26
2020/12/18 05:51:57;;;;;;;13.10;7.22;;;8.40;99.90;;;;;;4994601;28;20203;-27
2020/12/18 05:54:33;;;;;;;10.05;7.50;;;8.50;99.90;;;;;;5011440;28;20239;-27
2020/12/18 05:57:11;;;;;;;9.93;7.43;;;8.50;99.90;;;;;;5011110;28;20191;-27
2020/12/18 05:59:47;;;;;;;8.75;5.90;;;8.40;99.90;;;;;;5008123;28;20602;-26
2020/12/18 06:02:18;;;;;;;7.25;5.35;;;8.50;99.90;;;;;;5001995;28;20191;-27
2020/12/18 06:04:48;;;;;;;8.30;5.47;;;8.40;99.90;;;;;;5009962;28;20215;-27
2020/12/18 06:07:18;;;;;;;8.93;6.80;;;8.40;99.90;;;;;;5009379;28;20195;-26
2020/12/18 06:09:49;;;;;;;11.50;5.82;;;8.40;99.90;;;;;;4939252;28;2051970;-27
2020/12/18 06:12:19;;;;;;;6.15;5.30;;;8.30;99.90;;;;;;5003010;28;20227;-27
2020/12/18 06:14:51;;;;;;;8.98;5.13;;;8.30;99.90;;;;;;5012148;28;20205;-27
2020/12/18 06:17:29;;;;;;;7.13;5.30;;;8.30;99.90;;;;;;4996924;28;20199;-27
2020/12/18 06:19:59;;;;;;;6.88;5.82;;;8.40;99.90;;;;;;5011668;28;20264;-27
2020/12/18 06:22:29;;;;;;;9.15;7.07;;;8.40;99.90;;;;;;5011959;28;20586;-27
2020/12/18 06:25:05;;;;;;;9.30;6.07;;;8.40;99.90;;;;;;5011222;28;20602;-26
2020/12/18 06:27:35;;;;;;;9.07;4.78;;;8.30;99.90;;;;;;4998951;28;20538;-26
2020/12/18 06:30:11;;;;;;;12.75;5.43;;;8.30;99.90;;;;;;5011945;28;20584;-26
2020/12/18 06:32:47;;;;;;;6.95;4.68;;;8.30;99.90;;;;;;5008898;28;20596;-27
2020/12/18 06:35:33;;;;;;;6.35;5.20;;;8.20;99.90;;;;;;4996918;28;20258;-27
2020/12/18 06:38:24;;;;;;;10.65;5.30;;;8.20;99.90;;;;;;5010685;28;20192;-27
2020/12/18 06:40:55;;;;;;;7.78;4.20;;;8.30;99.90;;;;;;5007444;28;20191;-27
2020/12/18 06:43:37;;;;;;;6.25;5.03;;;8.20;99.90;;;;;;5006286;28;20709;-27
2020/12/18 06:46:09;;;;;;;11.85;5.10;;;8.10;99.90;;;;;;4999727;28;20273;-27
2020/12/18 06:48:39;;;;;;;6.93;5.03;;;8.10;99.90;;;;;;5010893;28;20192;-27
2020/12/18 06:51:27;;;;;;;5.32;4.63;;;8.00;99.90;;;;;;5010426;28;20203;-27
2020/12/18 06:54:10;;;;;;;9.70;5.82;;;8.20;99.90;;;;;;5001105;28;20609;-27
2020/12/18 06:56:40;;;;;;;8.40;4.68;;;8.30;99.90;;;;;;5011165;28;20222;-26
2020/12/18 06:59:22;;;;;;;10.32;6.07;;;8.30;99.90;;;;;;5010459;28;20195;-27
2020/12/18 07:01:53;;;;;;;7.15;4.57;;;8.30;99.90;;;;;;5010755;28;20713;-26
2020/12/18 07:04:24;;;;;;;7.40;4.50;;;8.20;99.90;;;;;;5010746;28;20544;-26
2020/12/18 07:06:54;;;;;;;12.07;5.25;;;8.20;99.90;;;;;;5010059;28;20795;-26
2020/12/18 07:09:26;;;;;;;7.80;5.50;;;8.30;99.90;;;;;;5002688;28;20580;-27
2020/12/18 07:12:02;;;;;;;6.50;4.95;;;8.20;99.90;;;;;;4988164;28;20196;-26
2020/12/18 07:14:33;;;;;;;8.60;5.22;;;8.20;99.90;;;;;;4991239;28;20192;-26
2020/12/18 07:17:11;;;;;;;4.13;3.72;;;8.20;99.90;;;;;;4986747;28;20263;-26
2020/12/18 07:19:43;;;;;;;7.38;4.72;;;8.10;99.90;;;;;;4988718;28;20206;-26
2020/12/18 07:22:13;;;;;;;5.32;4.55;;;8.10;99.90;;;;;;4985210;28;20697;-27
2020/12/18 07:24:43;;;;;;;4.50;3.75;;;8.10;99.90;;;;;;4990990;28;20196;-27
2020/12/18 07:27:13;;;;;;;7.70;4.90;;;8.20;99.90;;;;;;4985109;28;20298;-26
2020/12/18 07:29:43;;;;;;;6.72;4.85;;;8.20;99.90;;;;;;4991181;28;20315;-27
2020/12/18 07:32:15;;;;;;;6.18;4.50;;;8.30;99.90;;;;;;4990663;28;20570;-26
2020/12/18 07:34:45;;;;;;;5.50;4.10;;;8.40;99.90;;;;;;4991105;28;20196;-26
2020/12/18 07:37:16;;;;;;;11.93;5.57;;;8.40;99.90;;;;;;4978596;28;20275;-27
2020/12/18 07:39:56;;;;;;;5.65;4.80;;;8.40;99.90;;;;;;4987616;28;20246;-27
2020/12/18 07:42:26;;;;;;;5.05;4.40;;;8.40;99.90;;;;;;4988189;28;20192;-27
2020/12/18 07:45:07;;;;;;;5.68;4.25;;;8.40;99.90;;;;;;4990854;28;20232;-26
2020/12/18 07:47:40;;;;;;;6.40;4.57;;;8.40;99.90;;;;;;4990476;28;20192;-27
2020/12/18 07:50:10;;;;;;;9.65;4.55;;;8.40;99.90;;;;;;4989571;28;20227;-27
2020/12/18 07:52:41;;;;;;;6.80;4.78;;;8.40;99.90;;;;;;4982578;28;20199;-27
2020/12/18 07:55:16;;;;;;;6.68;4.40;;;8.40;99.90;;;;;;4989568;28;20203;-27
2020/12/18 07:57:47;;;;;;;6.10;4.13;;;8.40;99.90;;;;;;4989925;28;20193;-26
2020/12/18 08:00:17;;;;;;;5.82;4.40;;;8.40;99.90;;;;;;4990301;28;20196;-27
2020/12/18 08:02:49;;;;;;;6.93;4.97;;;8.40;99.90;;;;;;4986026;28;20220;-27
2020/12/18 08:05:22;;;;;;;7.43;4.60;;;8.40;99.90;;;;;;4975798;28;20189;-26
2020/12/18 08:07:57;;;;;;;10.27;4.45;;;8.30;99.90;;;;;;4976136;28;20247;-27
2020/12/18 08:10:28;;;;;;;9.82;4.97;;;8.40;99.90;;;;;;4996026;28;20238;-27
2020/12/18 08:12:58;;;;;;;8.07;4.28;;;8.30;99.90;;;;;;5009633;28;20199;-24
2020/12/18 08:15:28;;;;;;;5.95;4.28;;;8.40;99.90;;;;;;5002968;28;20207;-26
2020/12/18 08:18:01;;;;;;;4.78;4.10;;;8.30;99.90;;;;;;5007966;28;20203;-27
2020/12/18 08:20:32;;;;;;;6.53;4.20;;;8.30;99.90;;;;;;5004611;28;20617;-27
2020/12/18 08:23:03;;;;;;;6.15;4.10;;;8.40;99.90;;;;;;5009167;28;20270;-27
2020/12/18 08:25:50;;;;;;;7.13;4.20;;;8.50;99.90;;;;;;5008852;28;20191;-27
2020/12/18 08:28:22;;;;;;;5.53;3.30;;;8.40;99.90;;;;;;5007908;28;20217;-26
2020/12/18 08:30:54;;;;;;;5.72;3.90;;;8.40;99.90;;;;;;5009472;28;20215;-27
2020/12/18 08:33:26;;;;;;;5.25;4.00;;;8.40;99.90;;;;;;5009419;28;20219;-27
2020/12/18 08:35:57;;;;;;;9.50;4.55;;;8.40;99.90;;;;;;5002676;28;20254;-26
2020/12/18 08:38:27;;;;;;;5.80;4.00;;;8.30;99.90;;;;;;5007772;28;20242;-27
2020/12/18 08:40:57;;;;;;;6.93;3.92;;;8.30;99.90;;;;;;5008350;28;20302;-26
2020/12/18 08:43:27;;;;;;;4.82;3.83;;;8.30;99.90;;;;;;5003159;28;20227;-26
2020/12/18 08:45:57;;;;;;;8.30;3.97;;;8.40;99.90;;;;;;5007249;28;20266;-26
2020/12/18 08:48:30;;;;;;;6.55;4.00;;;8.30;99.90;;;;;;5002335;28;20355;-26
2020/12/18 08:51:03;;;;;;;7.15;3.90;;;8.20;99.90;;;;;;5009353;28;20223;-27
2020/12/18 08:53:35;;;;;;;7.03;3.90;;;8.30;99.90;;;;;;5008771;28;20199;-26
2020/12/18 08:56:07;;;;;;;5.10;3.80;;;8.10;99.90;;;;;;5005473;28;20244;-26
2020/12/18 08:58:37;;;;;;;5.55;3.60;;;8.20;99.90;;;;;;5009714;28;20222;-27
2020/12/18 09:01:24;;;;;;;6.35;3.95;;;8.10;99.90;;;;;;5009368;28;20199;-26
2020/12/18 09:03:55;;;;;;;9.40;4.10;;;8.10;99.90;;;;;;5009119;28;20948;-26
2020/12/18 09:06:26;;;;;;;8.23;4.40;;;8.10;99.90;;;;;;5009105;28;20283;-27
2020/12/18 09:09:06;;;;;;;5.82;4.25;;;8.20;99.90;;;;;;5008202;28;20187;-27
2020/12/18 09:11:36;;;;;;;6.35;4.30;;;8.20;99.90;;;;;;5008372;28;20230;-26
2020/12/18 09:14:06;;;;;;;6.90;4.10;;;8.20;99.90;;;;;;5007719;28;20192;-26
2020/12/18 09:16:36;;;;;;;4.03;3.60;;;8.10;99.90;;;;;;5002522;28;20192;-26
2020/12/18 09:19:07;;;;;;;5.93;3.75;;;8.10;99.90;;;;;;5004321;28;20265;-26
2020/12/18 09:21:37;;;;;;;5.00;3.42;;;8.10;99.90;;;;;;5008338;28;20521;-27
2020/12/18 09:24:19;;;;;;;4.15;3.50;;;8.10;99.90;;;;;;5008616;28;20572;-26
2020/12/18 09:26:49;;;;;;;4.25;2.85;;;8.10;99.90;;;;;;5008947;28;20283;-27
2020/12/18 09:29:19;;;;;;;6.10;3.72;;;8.00;99.90;;;;;;5003454;28;20306;-27
2020/12/18 09:31:49;;;;;;;6.47;3.70;;;8.00;99.90;;;;;;5008597;28;20199;-26
2020/12/18 09:34:21;;;;;;;5.53;3.50;;;8.10;99.90;;;;;;5009459;28;20211;-27
2020/12/18 09:36:53;;;;;;;7.22;3.72;;;8.10;99.90;;;;;;5011443;28;20513;-27
2020/12/18 09:39:23;;;;;;;6.75;3.75;;;8.20;99.90;;;;;;5009301;28;20207;-25
2020/12/18 09:41:53;;;;;;;8.63;4.45;;;8.10;99.90;;;;;;5012581;28;20203;-26
2020/12/18 09:44:23;;;;;;;7.38;4.65;;;8.00;99.90;;;;;;5001389;28;20200;-26
2020/12/18 09:46:53;;;;;;;7.65;4.22;;;8.00;99.90;;;;;;5011337;28;20207;-26
2020/12/18 09:49:25;;;;;;;7.45;4.40;;;8.00;99.90;;;;;;5012294;28;20268;-25
2020/12/18 09:51:55;;;;;;;9.77;4.72;;;8.00;99.90;;;;;;5010986;28;20242;-26
2020/12/18 09:54:24;;;;;;;6.18;4.20;;;7.90;99.90;;;;;;5009725;28;20199;-26
2020/12/18 09:56:55;;;;;;;8.15;4.35;;;7.90;99.90;;;;;;5011964;28;20205;-27
2020/12/18 09:59:25;;;;;;;4.78;3.70;;;7.80;99.90;;;;;;5007249;28;20258;-26
2020/12/18 10:01:55;;;;;;;5.15;3.85;;;7.80;99.90;;;;;;5006158;28;20207;-26
2020/12/18 10:04:26;;;;;;;5.55;3.88;;;7.80;99.90;;;;;;5009025;28;20200;-26
2020/12/18 10:06:56;;;;;;;4.25;3.20;;;7.80;99.90;;;;;;5011604;28;20285;-26
2020/12/18 10:09:28;;;;;;;12.30;4.57;;;7.70;99.90;;;;;;5010145;28;20305;-26
2020/12/18 10:12:00;;;;;;;6.07;3.90;;;7.70;99.90;;;;;;5003509;28;20219;-26
2020/12/18 10:14:30;;;;;;;4.82;3.53;;;7.70;99.90;;;;;;5010301;28;20518;-26
2020/12/18 10:17:00;;;;;;;6.80;3.67;;;7.80;99.90;;;;;;5011511;28;20207;-25
2020/12/18 10:19:31;;;;;;;6.35;3.67;;;7.70;99.90;;;;;;5011683;28;20215;-26
2020/12/18 10:22:01;;;;;;;8.35;4.43;;;7.70;99.90;;;;;;4996523;28;20187;-26
2020/12/18 10:24:31;;;;;;;7.65;3.85;;;7.70;99.90;;;;;;4997658;28;20372;-27
2020/12/18 10:27:02;;;;;;;4.68;4.03;;;7.70;99.90;;;;;;5011614;28;20195;-27
2020/12/18 10:29:32;;;;;;;5.45;3.10;;;7.60;99.90;;;;;;5011860;28;20227;-27
2020/12/18 10:32:02;;;;;;;6.35;3.55;;;7.60;99.90;;;;;;5011599;28;20659;-27
2020/12/18 10:34:34;;;;;;;7.93;3.40;;;7.60;99.90;;;;;;5009963;28;20207;-26
2020/12/18 10:37:04;;;;;;;5.68;4.20;;;7.70;99.90;;;;;;5011246;28;20188;-27
2020/12/18 10:39:34;;;;;;;7.20;3.58;;;7.60;99.90;;;;;;5004925;28;20199;-27
2020/12/18 10:42:05;;;;;;;7.68;3.45;;;7.70;99.90;;;;;;5011069;28;20211;-27
2020/12/18 10:44:36;;;;;;;4.95;3.53;;;7.70;99.90;;;;;;4998251;28;20279;-27
2020/12/18 10:47:06;;;;;;;6.07;4.18;;;7.70;99.90;;;;;;5009723;28;20200;-26
2020/12/18 10:49:37;;;;;;;5.78;3.28;;;7.70;99.90;;;;;;5004125;28;20710;-26
2020/12/18 10:52:07;;;;;;;5.43;3.00;;;7.80;99.90;;;;;;5003724;28;20192;-26
2020/12/18 10:54:37;;;;;;;6.32;4.13;;;7.80;99.90;;;;;;5010436;28;20192;-27
2020/12/18 10:57:10;;;;;;;3.05;2.78;;;7.80;99.90;;;;;;5010484;28;20254;-26
2020/12/18 10:59:44;;;;;;;7.15;3.95;;;7.80;99.90;;;;;;5003553;28;20633;-26
2020/12/18 11:02:14;;;;;;;8.35;3.30;;;7.80;99.90;;;;;;4995401;28;20630;-26
2020/12/18 11:04:45;;;;;;;7.50;3.20;;;7.90;99.90;;;;;;5010846;28;20226;-26
2020/12/18 11:07:15;;;;;;;5.95;2.70;;;7.90;99.90;;;;;;5010552;28;20195;-26
2020/12/18 11:09:46;;;;;;;4.65;3.30;;;7.90;99.90;;;;;;5009080;28;20285;-27
2020/12/18 11:12:16;;;;;;;4.15;3.05;;;7.90;99.90;;;;;;5008366;28;20188;-26
2020/12/18 11:14:46;;;;;;;4.65;3.00;;;7.90;99.90;;;;;;5005098;28;20570;-26
2020/12/18 11:17:16;;;;;;;6.78;3.75;;;8.00;99.90;;;;;;5009784;28;20261;-26
2020/12/18 11:19:47;;;;;;;4.72;3.65;;;7.90;99.90;;;;;;5010765;28;20211;-26
2020/12/18 11:22:17;;;;;;;3.70;2.53;;;7.90;99.90;;;;;;5008981;28;20188;-26
2020/12/18 11:24:47;;;;;;;3.70;2.72;;;7.90;99.90;;;;;;5003144;28;20203;-26
2020/12/18 11:27:25;;;;;;;6.25;2.92;;;7.80;99.90;;;;;;4997061;28;20188;-26
2020/12/18 11:29:55;;;;;;;7.30;3.63;;;7.80;99.90;;;;;;5006701;28;20265;-27
2020/12/18 11:32:25;;;;;;;5.35;2.95;;;7.80;99.90;;;;;;5007703;28;20199;-26
2020/12/18 11:34:56;;;;;;;5.75;2.80;;;7.80;99.90;;;;;;5009667;28;20196;-26
2020/12/18 11:37:26;;;;;;;3.85;3.10;;;7.80;99.90;;;;;;5009623;28;20195;-26
2020/12/18 11:39:56;;;;;;;4.30;2.83;;;7.80;99.90;;;;;;5008396;28;20267;-26
2020/12/18 11:42:26;;;;;;;4.53;3.00;;;7.80;99.90;;;;;;5008179;28;20199;-26
2020/12/18 11:44:56;;;;;;;2.95;2.65;;;7.80;99.90;;;;;;5009886;28;20195;-27
2020/12/18 11:47:27;;;;;;;3.20;2.90;;;7.80;99.90;;;;;;5007243;28;20283;-26
2020/12/18 11:49:58;;;;;;;8.40;5.28;;;7.80;99.90;;;;;;5010190;28;20277;-26
2020/12/18 11:52:28;;;;;;;9.45;3.75;;;7.80;99.90;;;;;;5009786;28;20192;-26
2020/12/18 11:54:59;;;;;;;4.45;3.42;;;7.80;99.90;;;;;;5009783;28;20207;-26
2020/12/18 11:57:43;;;;;;;3.30;3.00;;;7.80;99.90;;;;;;5009424;28;20199;-26
2020/12/18 12:00:13;;;;;;;4.72;3.22;;;7.80;99.90;;;;;;5009485;28;20195;-26
2020/12/18 12:02:43;;;;;;;5.32;3.10;;;7.80;99.90;;;;;;5009182;28;20224;-26
2020/12/18 12:05:14;;;;;;;3.67;2.67;;;7.80;99.90;;;;;;5009468;28;20219;-26
2020/12/18 12:07:45;;;;;;;3.10;2.80;;;7.80;99.90;;;;;;5006178;28;20192;-27
2020/12/18 12:10:15;;;;;;;4.43;2.80;;;7.90;99.90;;;;;;4999285;28;20592;-26
2020/12/18 12:12:45;;;;;;;4.65;2.45;;;7.90;99.90;;;;;;5009218;28;20195;-27
2020/12/18 12:15:18;;;;;;;4.72;3.13;;;8.00;99.90;;;;;;5008519;28;20207;-27
2020/12/18 12:17:48;;;;;;;4.80;3.08;;;7.90;99.90;;;;;;5009404;28;20191;-26
2020/12/18 12:20:19;;;;;;;9.05;3.42;;;7.90;99.90;;;;;;5009380;28;20203;-27
2020/12/18 12:22:49;;;;;;;5.40;2.60;;;8.00;99.90;;;;;;5009662;28;20198;-26
2020/12/18 12:25:19;;;;;;;4.05;3.25;;;7.90;99.90;;;;;;5008912;28;20265;-27
2020/12/18 12:27:59;;;;;;;5.53;2.83;;;8.00;99.90;;;;;;4994914;28;20191;-26
2020/12/18 12:30:29;;;;;;;3.33;2.58;;;8.00;99.90;;;;;;4999693;28;20219;-25
2020/12/18 12:32:59;;;;;;;5.65;3.00;;;8.00;99.90;;;;;;5008787;28;20231;-26
2020/12/18 12:35:30;;;;;;;3.42;2.80;;;7.90;99.90;;;;;;4994756;28;20273;-26
2020/12/18 12:38:00;;;;;;;4.97;2.97;;;7.90;99.90;;;;;;4992693;28;20574;-26
2020/12/18 12:40:30;;;;;;;3.08;2.78;;;8.00;99.90;;;;;;5003321;28;20281;-26
2020/12/18 12:43:00;;;;;;;3.60;2.95;;;8.00;99.90;;;;;;4994387;28;20797;-26
2020/12/18 12:45:30;;;;;;;3.17;2.80;;;8.10;99.90;;;;;;5004298;28;20406;-26
2020/12/18 12:48:00;;;;;;;3.05;2.75;;;8.00;99.90;;;;;;4995984;28;20214;-26
2020/12/18 12:50:47;;;;;;;3.63;2.55;;;8.00;99.90;;;;;;5008363;28;20218;-26
2020/12/18 12:53:17;;;;;;;5.13;2.20;;;8.00;99.90;;;;;;5008411;28;20281;-27
2020/12/18 12:55:49;;;;;;;4.68;2.42;;;8.00;99.90;;;;;;4991190;28;20299;-27
2020/12/18 12:58:20;;;;;;;3.58;2.70;;;8.10;99.90;;;;;;5008010;28;20229;-26
2020/12/18 13:00:50;;;;;;;2.80;2.60;;;8.10;99.90;;;;;;5008787;28;20211;-26
2020/12/18 13:03:20;;;;;;;3.55;2.72;;;8.10;99.90;;;;;;5007971;28;20222;-26
2020/12/18 13:05:51;;;;;;;2.95;2.30;;;8.10;99.90;;;;;;5008991;28;20211;-26
2020/12/18 13:08:21;;;;;;;4.15;2.67;;;8.10;99.90;;;;;;5007379;28;20187;-27
2020/12/18 13:10:54;;;;;;;3.70;2.25;;;8.20;99.90;;;;;;5012094;28;20239;-27
2020/12/18 13:13:24;;;;;;;6.38;2.30;;;8.20;99.90;;;;;;5005020;28;20282;-26
2020/12/18 13:15:54;;;;;;;2.17;1.98;;;8.20;99.90;;;;;;5010889;28;20578;-26
2020/12/18 13:18:24;;;;;;;3.25;2.92;;;8.20;99.90;;;;;;5012642;28;20632;-27